sensor_id;sensor_type;location;lat;lon;timestamp;noise_LAeq;noise_LA_min;noise_LA_max;noise_LA01;noise_LA95
67900;Laerm;54700;51.796;10.956;2024-01-25T00:00:56;49.44;37.80;68.29;;
67900;Laerm;54700;51.796;10.956;2024-01-25T00:03:23;43.87;38.34;54.30;;
67900;Laerm;54700;51.796;10.956;2024-01-25T00:05:50;45.21;37.05;64.63;;
67900;Laerm;54700;51.796;10.956;2024-01-25T00:08:17;44.99;37.40;60.27;;
67900;Laerm;54700;51.796;10.956;2024-01-25T00:10:43;48.50;37.21;63.39;;
67900;Laerm;54700;51.796;10.956;2024-01-25T00:13:10;44.49;34.33;61.19;;
67900;Laerm;54700;51.796;10.956;2024-01-25T00:15:37;54.24;33.84;71.16;;
67900;Laerm;54700;51.796;10.956;2024-01-25T00:18:06;54.94;35.50;71.79;;
67900;Laerm;54700;51.796;10.956;2024-01-25T00:20:32;42.58;34.34;60.18;;
67900;Laerm;54700;51.796;10.956;2024-01-25T00:22:59;45.20;38.08;57.96;;
67900;Laerm;54700;51.796;10.956;2024-01-25T00:25:26;53.56;35.51;69.88;;
67900;Laerm;54700;51.796;10.956;2024-01-25T00:27:53;41.68;36.53;51.58;;
67900;Laerm;54700;51.796;10.956;2024-01-25T00:30:20;43.37;34.29;54.94;;
67900;Laerm;54700;51.796;10.956;2024-01-25T00:32:47;41.75;34.65;59.87;;
67900;Laerm;54700;51.796;10.956;2024-01-25T00:35:16;41.08;34.94;61.03;;
67900;Laerm;54700;51.796;10.956;2024-01-25T00:37:44;51.75;35.52;67.17;;
67900;Laerm;54700;51.796;10.956;2024-01-25T00:40:12;50.93;38.49;70.90;;
67900;Laerm;54700;51.796;10.956;2024-01-25T00:42:42;48.20;37.41;69.34;;
67900;Laerm;54700;51.796;10.956;2024-01-25T00:45:10;39.85;35.22;55.98;;
67900;Laerm;54700;51.796;10.956;2024-01-25T00:47:38;52.02;36.52;65.51;;
67900;Laerm;54700;51.796;10.956;2024-01-25T00:50:06;39.38;35.00;54.94;;
67900;Laerm;54700;51.796;10.956;2024-01-25T00:52:35;53.80;36.29;68.29;;
67900;Laerm;54700;51.796;10.956;2024-01-25T00:55:03;50.13;37.87;68.81;;
67900;Laerm;54700;51.796;10.956;2024-01-25T00:57:30;45.54;36.95;63.06;;
67900;Laerm;54700;51.796;10.956;2024-01-25T00:59:58;44.86;38.07;59.99;;
67900;Laerm;54700;51.796;10.956;2024-01-25T01:02:26;52.89;38.36;76.51;;
67900;Laerm;54700;51.796;10.956;2024-01-25T01:04:57;45.79;37.76;66.21;;
67900;Laerm;54700;51.796;10.956;2024-01-25T01:07:25;45.13;36.06;60.78;;
67900;Laerm;54700;51.796;10.956;2024-01-25T01:09:54;45.26;37.08;60.03;;
67900;Laerm;54700;51.796;10.956;2024-01-25T01:12:21;41.69;36.00;54.73;;
67900;Laerm;54700;51.796;10.956;2024-01-25T01:14:48;47.71;35.72;73.82;;
67900;Laerm;54700;51.796;10.956;2024-01-25T01:17:15;46.50;36.53;61.82;;
67900;Laerm;54700;51.796;10.956;2024-01-25T01:19:43;47.94;36.29;72.73;;
67900;Laerm;54700;51.796;10.956;2024-01-25T01:22:10;39.44;34.75;52.25;;
67900;Laerm;54700;51.796;10.956;2024-01-25T01:24:37;39.83;35.21;49.93;;
67900;Laerm;54700;51.796;10.956;2024-01-25T01:27:05;43.29;35.33;61.19;;
67900;Laerm;54700;51.796;10.956;2024-01-25T01:29:33;49.71;36.60;77.71;;
67900;Laerm;54700;51.796;10.956;2024-01-25T01:32:00;51.71;40.17;68.31;;
67900;Laerm;54700;51.796;10.956;2024-01-25T01:34:28;42.95;34.83;56.58;;
67900;Laerm;54700;51.796;10.956;2024-01-25T01:36:54;52.54;35.48;67.27;;
67900;Laerm;54700;51.796;10.956;2024-01-25T01:39:21;44.36;37.31;60.33;;
67900;Laerm;54700;51.796;10.956;2024-01-25T01:41:48;50.72;38.78;68.83;;
67900;Laerm;54700;51.796;10.956;2024-01-25T01:44:17;47.34;38.91;66.45;;
67900;Laerm;54700;51.796;10.956;2024-01-25T01:46:44;47.52;38.08;64.37;;
67900;Laerm;54700;51.796;10.956;2024-01-25T01:49:13;50.40;38.06;68.38;;
67900;Laerm;54700;51.796;10.956;2024-01-25T01:51:41;49.45;40.81;67.14;;
67900;Laerm;54700;51.796;10.956;2024-01-25T01:54:09;54.91;39.40;73.11;;
67900;Laerm;54700;51.796;10.956;2024-01-25T01:56:36;46.48;39.03;70.56;;
67900;Laerm;54700;51.796;10.956;2024-01-25T01:59:08;45.10;39.41;52.93;;
67900;Laerm;54700;51.796;10.956;2024-01-25T02:01:37;52.90;41.20;72.82;;
67900;Laerm;54700;51.796;10.956;2024-01-25T02:04:04;46.12;40.18;62.75;;
67900;Laerm;54700;51.796;10.956;2024-01-25T02:06:31;54.15;41.32;68.13;;
67900;Laerm;54700;51.796;10.956;2024-01-25T02:08:58;44.16;39.27;57.90;;
67900;Laerm;54700;51.796;10.956;2024-01-25T02:11:26;53.00;38.62;66.37;;
67900;Laerm;54700;51.796;10.956;2024-01-25T02:13:52;52.00;40.97;66.50;;
67900;Laerm;54700;51.796;10.956;2024-01-25T02:16:25;45.29;39.72;61.05;;
67900;Laerm;54700;51.796;10.956;2024-01-25T02:18:54;46.32;36.69;68.90;;
67900;Laerm;54700;51.796;10.956;2024-01-25T02:21:23;44.05;35.65;61.36;;
67900;Laerm;54700;51.796;10.956;2024-01-25T02:23:51;49.21;38.74;65.31;;
67900;Laerm;54700;51.796;10.956;2024-01-25T02:26:21;52.78;39.04;69.78;;
67900;Laerm;54700;51.796;10.956;2024-01-25T02:28:47;48.90;35.34;66.32;;
67900;Laerm;54700;51.796;10.956;2024-01-25T02:31:14;51.77;35.51;75.93;;
67900;Laerm;54700;51.796;10.956;2024-01-25T02:33:41;47.41;36.32;63.79;;
67900;Laerm;54700;51.796;10.956;2024-01-25T02:36:08;43.15;35.58;59.57;;
67900;Laerm;54700;51.796;10.956;2024-01-25T02:38:35;50.84;37.03;72.44;;
67900;Laerm;54700;51.796;10.956;2024-01-25T02:41:03;50.71;36.51;65.05;;
67900;Laerm;54700;51.796;10.956;2024-01-25T02:43:30;48.78;39.50;65.99;;
67900;Laerm;54700;51.796;10.956;2024-01-25T02:45:57;48.89;37.46;70.04;;
67900;Laerm;54700;51.796;10.956;2024-01-25T02:48:24;49.73;36.08;70.27;;
67900;Laerm;54700;51.796;10.956;2024-01-25T02:50:51;46.41;35.46;60.36;;
67900;Laerm;54700;51.796;10.956;2024-01-25T02:53:18;39.85;35.24;52.44;;
67900;Laerm;54700;51.796;10.956;2024-01-25T02:55:45;51.57;36.32;68.81;;
67900;Laerm;54700;51.796;10.956;2024-01-25T02:58:13;47.52;35.05;64.83;;
67900;Laerm;54700;51.796;10.956;2024-01-25T03:00:43;45.75;37.28;59.25;;
67900;Laerm;54700;51.796;10.956;2024-01-25T03:03:10;50.23;37.10;65.98;;
67900;Laerm;54700;51.796;10.956;2024-01-25T03:05:37;42.59;36.06;51.00;;
67900;Laerm;54700;51.796;10.956;2024-01-25T03:08:04;43.34;36.01;59.74;;
67900;Laerm;54700;51.796;10.956;2024-01-25T03:10:31;54.76;40.26;66.71;;
67900;Laerm;54700;51.796;10.956;2024-01-25T03:12:58;47.19;37.75;64.62;;
67900;Laerm;54700;51.796;10.956;2024-01-25T03:15:26;48.96;40.88;65.29;;
67900;Laerm;54700;51.796;10.956;2024-01-25T03:17:53;54.25;36.20;70.73;;
67900;Laerm;54700;51.796;10.956;2024-01-25T03:20:20;51.18;37.46;67.96;;
67900;Laerm;54700;51.796;10.956;2024-01-25T03:22:47;56.21;40.78;70.03;;
67900;Laerm;54700;51.796;10.956;2024-01-25T03:25:14;50.41;36.57;65.31;;
67900;Laerm;54700;51.796;10.956;2024-01-25T03:27:41;56.50;37.32;70.85;;
67900;Laerm;54700;51.796;10.956;2024-01-25T03:30:09;55.16;40.03;72.79;;
67900;Laerm;54700;51.796;10.956;2024-01-25T03:32:38;53.28;39.31;67.62;;
67900;Laerm;54700;51.796;10.956;2024-01-25T03:35:06;52.67;38.30;69.17;;
67900;Laerm;54700;51.796;10.956;2024-01-25T03:37:33;56.17;38.50;72.00;;
67900;Laerm;54700;51.796;10.956;2024-01-25T03:40:00;56.45;39.53;77.06;;
67900;Laerm;54700;51.796;10.956;2024-01-25T03:42:27;44.43;37.63;62.17;;
67900;Laerm;54700;51.796;10.956;2024-01-25T03:44:54;58.55;40.84;72.89;;
67900;Laerm;54700;51.796;10.956;2024-01-25T03:47:20;54.19;39.27;67.78;;
67900;Laerm;54700;51.796;10.956;2024-01-25T03:49:49;41.96;38.31;51.60;;
67900;Laerm;54700;51.796;10.956;2024-01-25T03:52:15;53.98;36.75;69.32;;
67900;Laerm;54700;51.796;10.956;2024-01-25T03:54:45;54.57;40.13;67.29;;
67900;Laerm;54700;51.796;10.956;2024-01-25T03:57:12;53.39;38.14;69.41;;
67900;Laerm;54700;51.796;10.956;2024-01-25T03:59:39;43.54;37.80;57.00;;
67900;Laerm;54700;51.796;10.956;2024-01-25T04:02:06;40.14;35.74;53.15;;
67900;Laerm;54700;51.796;10.956;2024-01-25T04:04:32;53.83;38.42;74.44;;
67900;Laerm;54700;51.796;10.956;2024-01-25T04:07:01;58.15;44.33;70.22;;
67900;Laerm;54700;51.796;10.956;2024-01-25T04:09:28;57.11;41.52;73.02;;
67900;Laerm;54700;51.796;10.956;2024-01-25T04:11:56;54.68;42.72;69.30;;
67900;Laerm;54700;51.796;10.956;2024-01-25T04:14:22;54.80;40.63;71.40;;
67900;Laerm;54700;51.796;10.956;2024-01-25T04:16:49;58.71;41.32;71.06;;
67900;Laerm;54700;51.796;10.956;2024-01-25T04:19:16;56.54;41.49;70.64;;
67900;Laerm;54700;51.796;10.956;2024-01-25T04:21:43;58.65;44.33;71.97;;
67900;Laerm;54700;51.796;10.956;2024-01-25T04:24:11;57.67;42.53;76.53;;
67900;Laerm;54700;51.796;10.956;2024-01-25T04:26:38;59.63;45.54;72.70;;
67900;Laerm;54700;51.796;10.956;2024-01-25T04:29:05;58.48;41.89;71.65;;
67900;Laerm;54700;51.796;10.956;2024-01-25T04:31:32;55.18;42.49;69.45;;
67900;Laerm;54700;51.796;10.956;2024-01-25T04:33:59;59.26;44.19;69.12;;
67900;Laerm;54700;51.796;10.956;2024-01-25T04:36:26;59.90;43.38;73.54;;
67900;Laerm;54700;51.796;10.956;2024-01-25T04:38:55;58.24;43.19;71.05;;
67900;Laerm;54700;51.796;10.956;2024-01-25T04:41:23;59.63;46.01;70.37;;
67900;Laerm;54700;51.796;10.956;2024-01-25T04:43:50;59.73;42.64;70.20;;
67900;Laerm;54700;51.796;10.956;2024-01-25T04:46:17;61.11;45.70;71.63;;
67900;Laerm;54700;51.796;10.956;2024-01-25T04:48:46;56.70;42.14;70.88;;
67900;Laerm;54700;51.796;10.956;2024-01-25T04:51:15;61.88;44.21;72.14;;
67900;Laerm;54700;51.796;10.956;2024-01-25T04:53:42;61.41;46.49;73.32;;
67900;Laerm;54700;51.796;10.956;2024-01-25T04:56:09;61.15;43.55;75.54;;
67900;Laerm;54700;51.796;10.956;2024-01-25T04:58:37;60.66;45.39;82.27;;
67900;Laerm;54700;51.796;10.956;2024-01-25T05:01:04;59.58;43.97;73.49;;
67900;Laerm;54700;51.796;10.956;2024-01-25T05:03:32;58.07;43.06;69.31;;
67900;Laerm;54700;51.796;10.956;2024-01-25T05:05:59;57.78;43.46;68.14;;
67900;Laerm;54700;51.796;10.956;2024-01-25T05:08:28;62.98;43.19;75.64;;
67900;Laerm;54700;51.796;10.956;2024-01-25T05:10:54;61.35;43.81;70.37;;
67900;Laerm;54700;51.796;10.956;2024-01-25T05:13:22;59.74;42.74;69.58;;
67900;Laerm;54700;51.796;10.956;2024-01-25T05:15:50;59.47;39.61;71.06;;
67900;Laerm;54700;51.796;10.956;2024-01-25T05:18:17;58.87;42.78;68.08;;
67900;Laerm;54700;51.796;10.956;2024-01-25T05:20:44;57.95;44.01;72.33;;
67900;Laerm;54700;51.796;10.956;2024-01-25T05:23:11;62.00;45.14;70.65;;
67900;Laerm;54700;51.796;10.956;2024-01-25T05:25:38;61.21;45.49;72.80;;
67900;Laerm;54700;51.796;10.956;2024-01-25T05:28:05;63.01;45.52;73.86;;
67900;Laerm;54700;51.796;10.956;2024-01-25T05:30:32;60.61;43.15;73.59;;
67900;Laerm;54700;51.796;10.956;2024-01-25T05:33:00;63.25;45.31;76.24;;
67900;Laerm;54700;51.796;10.956;2024-01-25T05:35:28;61.77;43.69;75.12;;
67900;Laerm;54700;51.796;10.956;2024-01-25T05:37:54;61.80;48.21;72.41;;
67900;Laerm;54700;51.796;10.956;2024-01-25T05:40:21;59.34;42.49;69.94;;
67900;Laerm;54700;51.796;10.956;2024-01-25T05:42:48;60.83;42.98;69.71;;
67900;Laerm;54700;51.796;10.956;2024-01-25T05:45:15;62.19;43.03;72.17;;
67900;Laerm;54700;51.796;10.956;2024-01-25T05:47:45;63.35;48.13;73.33;;
67900;Laerm;54700;51.796;10.956;2024-01-25T05:50:13;62.42;47.69;71.61;;
67900;Laerm;54700;51.796;10.956;2024-01-25T05:52:40;62.78;49.73;76.35;;
67900;Laerm;54700;51.796;10.956;2024-01-25T05:55:07;63.18;45.27;74.25;;
67900;Laerm;54700;51.796;10.956;2024-01-25T05:57:35;64.06;47.93;79.86;;
67900;Laerm;54700;51.796;10.956;2024-01-25T06:00:07;60.70;49.44;69.17;;
67900;Laerm;54700;51.796;10.956;2024-01-25T06:02:37;63.75;53.91;78.27;;
67900;Laerm;54700;51.796;10.956;2024-01-25T06:05:04;63.95;50.41;72.50;;
67900;Laerm;54700;51.796;10.956;2024-01-25T06:07:32;64.43;49.55;78.18;;
67900;Laerm;54700;51.796;10.956;2024-01-25T06:09:59;61.35;47.06;71.46;;
67900;Laerm;54700;51.796;10.956;2024-01-25T06:12:26;57.77;42.35;67.99;;
67900;Laerm;54700;51.796;10.956;2024-01-25T06:14:53;58.63;41.75;68.89;;
67900;Laerm;54700;51.796;10.956;2024-01-25T06:17:20;64.14;45.17;74.26;;
67900;Laerm;54700;51.796;10.956;2024-01-25T06:19:46;60.56;43.29;70.20;;
67900;Laerm;54700;51.796;10.956;2024-01-25T06:22:13;61.71;46.77;71.11;;
67900;Laerm;54700;51.796;10.956;2024-01-25T06:24:43;62.59;48.70;76.55;;
67900;Laerm;54700;51.796;10.956;2024-01-25T06:27:10;60.84;44.25;70.01;;
67900;Laerm;54700;51.796;10.956;2024-01-25T06:29:37;62.86;48.58;70.12;;
67900;Laerm;54700;51.796;10.956;2024-01-25T06:32:06;62.22;43.86;72.56;;
67900;Laerm;54700;51.796;10.956;2024-01-25T06:34:33;62.56;47.38;73.86;;
67900;Laerm;54700;51.796;10.956;2024-01-25T06:37:00;64.01;47.98;74.21;;
67900;Laerm;54700;51.796;10.956;2024-01-25T06:39:27;63.88;46.71;71.97;;
67900;Laerm;54700;51.796;10.956;2024-01-25T06:41:55;61.55;43.14;69.34;;
67900;Laerm;54700;51.796;10.956;2024-01-25T06:44:24;64.83;49.80;74.54;;
67900;Laerm;54700;51.796;10.956;2024-01-25T06:46:51;64.64;55.17;73.38;;
67900;Laerm;54700;51.796;10.956;2024-01-25T06:49:24;62.79;46.68;71.45;;
67900;Laerm;54700;51.796;10.956;2024-01-25T06:51:51;64.48;46.65;72.97;;
67900;Laerm;54700;51.796;10.956;2024-01-25T06:54:18;64.05;47.62;76.05;;
67900;Laerm;54700;51.796;10.956;2024-01-25T06:56:46;65.78;55.35;78.48;;
67900;Laerm;54700;51.796;10.956;2024-01-25T06:59:16;65.20;48.02;77.41;;
67900;Laerm;54700;51.796;10.956;2024-01-25T07:01:44;65.03;51.00;77.32;;
67900;Laerm;54700;51.796;10.956;2024-01-25T07:04:11;62.52;46.51;75.40;;
67900;Laerm;54700;51.796;10.956;2024-01-25T07:06:42;65.08;46.82;81.21;;
67900;Laerm;54700;51.796;10.956;2024-01-25T07:09:23;61.52;46.07;71.47;;
67900;Laerm;54700;51.796;10.956;2024-01-25T07:11:54;61.03;44.39;71.42;;
67900;Laerm;54700;51.796;10.956;2024-01-25T07:18:03;59.23;40.48;75.18;;
67900;Laerm;54700;51.796;10.956;2024-01-25T07:41:08;62.38;41.95;71.44;;
67900;Laerm;54700;51.796;10.956;2024-01-25T07:43:36;60.74;41.80;74.35;;
67900;Laerm;54700;51.796;10.956;2024-01-25T07:46:05;62.96;47.78;70.19;;
67900;Laerm;54700;51.796;10.956;2024-01-25T07:48:34;62.02;42.17;70.89;;
67900;Laerm;54700;51.796;10.956;2024-01-25T07:51:12;64.33;43.48;76.99;;
67900;Laerm;54700;51.796;10.956;2024-01-25T07:53:40;62.69;44.36;70.65;;
67900;Laerm;54700;51.796;10.956;2024-01-25T07:56:10;63.79;45.81;74.79;;
67900;Laerm;54700;51.796;10.956;2024-01-25T08:01:20;61.89;42.53;73.24;;
67900;Laerm;54700;51.796;10.956;2024-01-25T08:03:54;60.17;38.96;71.32;;
67900;Laerm;54700;51.796;10.956;2024-01-25T08:06:26;61.30;43.37;69.53;;
67900;Laerm;54700;51.796;10.956;2024-01-25T08:08:57;62.31;41.66;69.92;;
67900;Laerm;54700;51.796;10.956;2024-01-25T08:11:41;63.35;42.09;79.28;;
67900;Laerm;54700;51.796;10.956;2024-01-25T08:14:11;62.10;43.47;71.26;;
67900;Laerm;54700;51.796;10.956;2024-01-25T08:16:38;61.44;43.01;70.75;;
67900;Laerm;54700;51.796;10.956;2024-01-25T08:19:05;61.69;40.51;70.75;;
67900;Laerm;54700;51.796;10.956;2024-01-25T08:21:32;61.07;42.74;71.06;;
67900;Laerm;54700;51.796;10.956;2024-01-25T08:24:01;62.68;43.26;70.81;;
67900;Laerm;54700;51.796;10.956;2024-01-25T08:26:28;64.76;44.96;82.64;;
67900;Laerm;54700;51.796;10.956;2024-01-25T08:28:56;63.33;45.75;76.54;;
67900;Laerm;54700;51.796;10.956;2024-01-25T08:31:25;62.01;43.49;79.77;;
67900;Laerm;54700;51.796;10.956;2024-01-25T08:33:57;62.23;43.42;72.43;;
67900;Laerm;54700;51.796;10.956;2024-01-25T08:36:24;61.24;41.10;70.75;;
67900;Laerm;54700;51.796;10.956;2024-01-25T08:38:53;62.34;46.99;72.59;;
67900;Laerm;54700;51.796;10.956;2024-01-25T08:41:38;63.06;44.59;71.80;;
67900;Laerm;54700;51.796;10.956;2024-01-25T08:44:20;65.46;41.22;77.37;;
67900;Laerm;54700;51.796;10.956;2024-01-25T08:46:50;61.83;48.97;74.10;;
67900;Laerm;54700;51.796;10.956;2024-01-25T08:49:22;62.40;47.10;72.10;;
67900;Laerm;54700;51.796;10.956;2024-01-25T08:51:52;60.93;50.45;68.79;;
67900;Laerm;54700;51.796;10.956;2024-01-25T08:54:45;65.59;49.05;78.41;;
67900;Laerm;54700;51.796;10.956;2024-01-25T08:57:32;63.33;47.48;70.66;;
67900;Laerm;54700;51.796;10.956;2024-01-25T09:00:07;62.53;41.90;73.69;;
67900;Laerm;54700;51.796;10.956;2024-01-25T09:02:36;64.17;47.62;78.92;;
67900;Laerm;54700;51.796;10.956;2024-01-25T09:05:04;62.51;46.63;74.85;;
67900;Laerm;54700;51.796;10.956;2024-01-25T09:07:31;62.60;45.94;70.52;;
67900;Laerm;54700;51.796;10.956;2024-01-25T09:10:05;61.71;46.91;70.94;;
67900;Laerm;54700;51.796;10.956;2024-01-25T09:12:34;63.05;45.65;72.04;;
67900;Laerm;54700;51.796;10.956;2024-01-25T09:15:03;61.75;44.86;70.65;;
67900;Laerm;54700;51.796;10.956;2024-01-25T09:17:30;63.72;47.89;72.50;;
67900;Laerm;54700;51.796;10.956;2024-01-25T09:19:57;61.23;44.02;69.52;;
67900;Laerm;54700;51.796;10.956;2024-01-25T09:22:25;63.08;43.22;71.14;;
67900;Laerm;54700;51.796;10.956;2024-01-25T09:24:55;66.63;44.49;81.06;;
67900;Laerm;54700;51.796;10.956;2024-01-25T09:27:26;59.61;38.83;71.32;;
67900;Laerm;54700;51.796;10.956;2024-01-25T09:29:54;62.93;46.96;72.29;;
67900;Laerm;54700;51.796;10.956;2024-01-25T09:32:23;62.83;45.93;73.52;;
67900;Laerm;54700;51.796;10.956;2024-01-25T09:34:50;63.75;43.18;72.87;;
67900;Laerm;54700;51.796;10.956;2024-01-25T09:37:20;61.44;45.66;69.80;;
67900;Laerm;54700;51.796;10.956;2024-01-25T09:39:52;63.50;52.47;71.74;;
67900;Laerm;54700;51.796;10.956;2024-01-25T09:42:19;63.09;48.87;71.92;;
67900;Laerm;54700;51.796;10.956;2024-01-25T09:44:46;63.40;47.13;70.49;;
67900;Laerm;54700;51.796;10.956;2024-01-25T09:47:15;64.00;46.44;71.03;;
67900;Laerm;54700;51.796;10.956;2024-01-25T09:49:48;63.84;49.44;70.90;;
67900;Laerm;54700;51.796;10.956;2024-01-25T09:52:16;63.88;45.43;70.69;;
67900;Laerm;54700;51.796;10.956;2024-01-25T09:54:43;63.87;49.71;72.45;;
67900;Laerm;54700;51.796;10.956;2024-01-25T09:57:14;65.33;47.73;73.08;;
67900;Laerm;54700;51.796;10.956;2024-01-25T09:59:43;62.50;43.68;72.81;;
67900;Laerm;54700;51.796;10.956;2024-01-25T10:02:11;63.86;48.58;73.86;;
67900;Laerm;54700;51.796;10.956;2024-01-25T10:04:38;64.19;49.62;74.47;;
67900;Laerm;54700;51.796;10.956;2024-01-25T10:07:07;63.90;49.11;73.64;;
67900;Laerm;54700;51.796;10.956;2024-01-25T10:09:38;62.36;44.09;69.93;;
67900;Laerm;54700;51.796;10.956;2024-01-25T10:12:06;60.89;43.08;69.45;;
67900;Laerm;54700;51.796;10.956;2024-01-25T10:14:36;64.20;53.56;70.72;;
67900;Laerm;54700;51.796;10.956;2024-01-25T10:17:05;62.80;44.49;72.72;;
67900;Laerm;54700;51.796;10.956;2024-01-25T10:19:33;65.75;47.77;78.93;;
67900;Laerm;54700;51.796;10.956;2024-01-25T10:22:00;62.86;48.52;71.04;;
67900;Laerm;54700;51.796;10.956;2024-01-25T10:24:31;63.26;43.49;72.60;;
67900;Laerm;54700;51.796;10.956;2024-01-25T10:26:59;63.09;48.09;71.08;;
67900;Laerm;54700;51.796;10.956;2024-01-25T10:29:39;63.71;43.12;85.96;;
67900;Laerm;54700;51.796;10.956;2024-01-25T10:32:06;62.35;45.75;70.65;;
67900;Laerm;54700;51.796;10.956;2024-01-25T10:34:36;65.56;43.60;73.83;;
67900;Laerm;54700;51.796;10.956;2024-01-25T10:37:05;63.63;49.54;74.38;;
67900;Laerm;54700;51.796;10.956;2024-01-25T10:39:35;64.18;52.03;70.69;;
67900;Laerm;54700;51.796;10.956;2024-01-25T10:42:03;64.89;51.04;79.15;;
67900;Laerm;54700;51.796;10.956;2024-01-25T10:44:31;63.90;46.53;73.51;;
67900;Laerm;54700;51.796;10.956;2024-01-25T10:46:59;61.92;45.37;70.48;;
67900;Laerm;54700;51.796;10.956;2024-01-25T10:49:26;62.61;48.51;71.17;;
67900;Laerm;54700;51.796;10.956;2024-01-25T10:51:56;63.90;49.85;80.90;;
67900;Laerm;54700;51.796;10.956;2024-01-25T10:54:28;61.66;47.42;70.76;;
67900;Laerm;54700;51.796;10.956;2024-01-25T10:56:59;63.64;49.19;73.80;;
67900;Laerm;54700;51.796;10.956;2024-01-25T10:59:28;62.56;44.43;71.73;;
67900;Laerm;54700;51.796;10.956;2024-01-25T11:01:55;64.13;46.54;79.64;;
67900;Laerm;54700;51.796;10.956;2024-01-25T11:04:23;62.64;46.17;75.93;;
67900;Laerm;54700;51.796;10.956;2024-01-25T11:06:50;63.32;42.32;74.70;;
67900;Laerm;54700;51.796;10.956;2024-01-25T11:09:20;66.89;46.16;79.66;;
67900;Laerm;54700;51.796;10.956;2024-01-25T11:11:47;61.64;45.97;68.94;;
67900;Laerm;54700;51.796;10.956;2024-01-25T11:14:16;62.95;46.39;75.35;;
67900;Laerm;54700;51.796;10.956;2024-01-25T11:16:44;65.13;45.05;78.53;;
67900;Laerm;54700;51.796;10.956;2024-01-25T11:19:20;62.15;40.95;70.52;;
67900;Laerm;54700;51.796;10.956;2024-01-25T11:21:47;64.07;48.04;71.02;;
67900;Laerm;54700;51.796;10.956;2024-01-25T11:24:16;62.61;51.10;70.34;;
67900;Laerm;54700;51.796;10.956;2024-01-25T11:26:44;62.80;44.95;70.83;;
67900;Laerm;54700;51.796;10.956;2024-01-25T11:29:13;61.90;41.76;74.02;;
67900;Laerm;54700;51.796;10.956;2024-01-25T11:31:46;61.29;43.80;70.79;;
67900;Laerm;54700;51.796;10.956;2024-01-25T11:34:14;63.05;45.22;74.49;;
67900;Laerm;54700;51.796;10.956;2024-01-25T11:36:42;62.97;45.87;74.73;;
67900;Laerm;54700;51.796;10.956;2024-01-25T11:39:10;60.56;41.90;71.62;;
67900;Laerm;54700;51.796;10.956;2024-01-25T11:41:37;59.66;41.35;68.91;;
67900;Laerm;54700;51.796;10.956;2024-01-25T11:44:04;64.48;42.76;82.90;;
67900;Laerm;54700;51.796;10.956;2024-01-25T11:46:32;61.40;42.64;69.26;;
67900;Laerm;54700;51.796;10.956;2024-01-25T11:49:01;63.03;44.02;73.21;;
67900;Laerm;54700;51.796;10.956;2024-01-25T11:51:29;63.70;46.26;71.92;;
67900;Laerm;54700;51.796;10.956;2024-01-25T11:53:56;63.30;43.89;73.96;;
67900;Laerm;54700;51.796;10.956;2024-01-25T11:56:26;63.98;43.87;75.04;;
67900;Laerm;54700;51.796;10.956;2024-01-25T11:58:56;63.58;40.87;81.74;;
67900;Laerm;54700;51.796;10.956;2024-01-25T12:01:24;62.82;50.19;76.52;;
67900;Laerm;54700;51.796;10.956;2024-01-25T12:03:54;61.57;43.44;70.89;;
67900;Laerm;54700;51.796;10.956;2024-01-25T12:06:23;63.07;50.26;73.04;;
67900;Laerm;54700;51.796;10.956;2024-01-25T12:08:50;62.31;42.71;72.72;;
67900;Laerm;54700;51.796;10.956;2024-01-25T12:11:17;63.67;46.20;74.32;;
67900;Laerm;54700;51.796;10.956;2024-01-25T12:13:44;63.51;46.81;73.30;;
67900;Laerm;54700;51.796;10.956;2024-01-25T12:16:12;61.74;40.86;71.04;;
67900;Laerm;54700;51.796;10.956;2024-01-25T12:18:40;63.75;52.66;71.34;;
67900;Laerm;54700;51.796;10.956;2024-01-25T12:21:07;62.38;45.83;75.29;;
67900;Laerm;54700;51.796;10.956;2024-01-25T12:23:37;65.50;49.59;81.23;;
67900;Laerm;54700;51.796;10.956;2024-01-25T12:26:05;63.80;45.42;72.50;;
67900;Laerm;54700;51.796;10.956;2024-01-25T12:28:32;63.09;45.46;70.11;;
67900;Laerm;54700;51.796;10.956;2024-01-25T12:31:00;63.22;51.25;71.90;;
67900;Laerm;54700;51.796;10.956;2024-01-25T12:33:28;63.81;43.15;74.73;;
67900;Laerm;54700;51.796;10.956;2024-01-25T12:35:56;63.72;43.13;73.75;;
67900;Laerm;54700;51.796;10.956;2024-01-25T12:38:24;64.07;44.83;74.91;;
67900;Laerm;54700;51.796;10.956;2024-01-25T12:40:53;62.96;47.28;73.53;;
67900;Laerm;54700;51.796;10.956;2024-01-25T12:43:20;60.03;44.68;69.51;;
67900;Laerm;54700;51.796;10.956;2024-01-25T12:45:48;63.79;46.93;73.36;;
67900;Laerm;54700;51.796;10.956;2024-01-25T12:48:15;64.95;52.68;85.08;;
67900;Laerm;54700;51.796;10.956;2024-01-25T12:50:42;63.77;51.09;71.53;;
67900;Laerm;54700;51.796;10.956;2024-01-25T12:53:12;63.75;50.05;75.63;;
67900;Laerm;54700;51.796;10.956;2024-01-25T12:55:40;63.43;42.55;71.59;;
67900;Laerm;54700;51.796;10.956;2024-01-25T12:58:08;62.78;40.12;73.44;;
67900;Laerm;54700;51.796;10.956;2024-01-25T13:00:35;66.10;47.84;74.67;;
67900;Laerm;54700;51.796;10.956;2024-01-25T13:03:03;62.77;41.73;72.50;;
67900;Laerm;54700;51.796;10.956;2024-01-25T13:05:33;62.47;40.47;72.73;;
67900;Laerm;54700;51.796;10.956;2024-01-25T13:08:00;63.56;42.51;71.73;;
67900;Laerm;54700;51.796;10.956;2024-01-25T13:10:28;63.64;45.07;73.51;;
67900;Laerm;54700;51.796;10.956;2024-01-25T13:12:56;62.14;41.08;73.55;;
67900;Laerm;54700;51.796;10.956;2024-01-25T13:15:24;65.65;50.75;80.21;;
67900;Laerm;54700;51.796;10.956;2024-01-25T13:17:52;63.04;43.14;70.62;;
67900;Laerm;54700;51.796;10.956;2024-01-25T13:20:19;62.09;43.96;70.39;;
67900;Laerm;54700;51.796;10.956;2024-01-25T13:22:46;63.16;37.27;70.49;;
67900;Laerm;54700;51.796;10.956;2024-01-25T13:25:13;62.92;43.55;70.79;;
67900;Laerm;54700;51.796;10.956;2024-01-25T13:27:40;63.64;39.71;72.23;;
67900;Laerm;54700;51.796;10.956;2024-01-25T13:30:08;64.12;44.98;75.69;;
67900;Laerm;54700;51.796;10.956;2024-01-25T13:32:39;62.79;38.58;72.31;;
67900;Laerm;54700;51.796;10.956;2024-01-25T13:35:06;63.56;47.79;70.77;;
67900;Laerm;54700;51.796;10.956;2024-01-25T13:37:34;63.78;40.17;70.81;;
67900;Laerm;54700;51.796;10.956;2024-01-25T13:40:02;62.46;46.91;71.57;;
67900;Laerm;54700;51.796;10.956;2024-01-25T13:42:31;63.49;45.26;72.44;;
67900;Laerm;54700;51.796;10.956;2024-01-25T13:44:58;63.32;46.70;71.93;;
67900;Laerm;54700;51.796;10.956;2024-01-25T13:47:25;63.35;44.78;70.86;;
67900;Laerm;54700;51.796;10.956;2024-01-25T13:49:56;63.12;43.69;70.37;;
67900;Laerm;54700;51.796;10.956;2024-01-25T13:52:23;63.08;40.48;73.78;;
67900;Laerm;54700;51.796;10.956;2024-01-25T13:54:50;63.09;39.07;73.44;;
67900;Laerm;54700;51.796;10.956;2024-01-25T13:57:17;64.27;41.14;73.49;;
67900;Laerm;54700;51.796;10.956;2024-01-25T13:59:46;63.09;38.60;72.34;;
67900;Laerm;54700;51.796;10.956;2024-01-25T14:02:17;65.51;39.52;75.98;;
67900;Laerm;54700;51.796;10.956;2024-01-25T14:04:44;63.73;46.54;74.91;;